Aérodrome :
LOGIN :

S'inscrire | Disclaimer

   EN    FR    IT 

 










Légende :    VFR   VFR Marginal   IFR   IFR Intensif   IFR Très Intensif
Visi : 
Plafond : 
>= 8 km
>= 3000ft
5 à 8 km
1000 à 3000 ft
1500m à 5 km
500 à 1000 ft
800 à 1500m
200 à 500 ft
< 800m
< 200 ft
Symboles :   Orages  Brouillard  Fortes neiges  Fortes précipitations  Vent > 20 kt
SIGMETs :   Divers  Orages  Givrage  Turbulence  Onde Orograph.  Cendres Volcan.







- Altitude de l'aérodrome : 295 ft
- Code IATA : BWE


EDVE - Braunschweig

DERNIER METAR :
  • 221220Z 23014KT 9999 SCT028 BKN035 11/08 Q1007

METARs EXPIRÉS :
  • 221150Z 23014KT 9999 BKN029 OVC034 11/08 Q1007
  • 221120Z 23013KT 9999 BKN029 OVC036 11/08 Q1007
  • 221050Z 23013KT 9999 SCT029 BKN034 OVC055 11/08 Q1007
  • 220950Z 22010KT 9999 OVC026 10/08 Q1007

TAF TAF EDVE
Valide du 22 à 12h jusqu'au 22 à 21h UTC


221100Z 2212/2221 19013KT 9999 SCT020
BECMG 2212/2214 22008KT
Pas de NOTAMs connus pour ce terrain.



MET'MAP, la Météo Aéronautique d'un coup d'oeil ! - Copyright ORBIFLY Décembre 2007 - Disclaimer

ORBIFLY MET'MAP TEAM :

Programmation & Développement : Alexandra Zaïnal
Conception & Développement : Baudouin d'Aumeries
Co-Programmation & Développement : Marc-Olivier Méhu
Soutien technique & logistique : Manuel Goepfert

Contact : metmap@orbifly.com




SOURCES & CREDITS :

   NOAA